createdAt,value
2022-12-13T00:01:39.802Z,99613.00
2022-12-13T00:06:41.543Z,99620.56
2022-12-13T00:11:43.380Z,99616.56
2022-12-13T00:16:47.213Z,99612.41
2022-12-13T00:21:48.942Z,99616.56
2022-12-13T00:26:50.531Z,99614.88
2022-12-13T00:31:59.910Z,99613.34
2022-12-13T00:37:02.297Z,99606.13
2022-12-13T00:42:04.281Z,99617.50
2022-12-13T00:47:05.908Z,99613.78
2022-12-13T00:52:07.508Z,99614.44
2022-12-13T00:57:09.130Z,99610.19
2022-12-13T01:02:10.781Z,99597.19
2022-12-13T01:07:12.688Z,99613.66
2022-12-13T01:12:14.546Z,99620.22
2022-12-13T01:17:16.158Z,99624.88
2022-12-13T01:22:17.965Z,99612.38
2022-12-13T01:27:19.654Z,99619.47
2022-12-13T01:32:21.337Z,99614.06
2022-12-13T01:37:26.020Z,99611.91
2022-12-13T01:42:27.871Z,99611.44
2022-12-13T01:47:44.777Z,99614.47
2022-12-13T01:52:47.738Z,99615.16
2022-12-13T01:57:55.879Z,99606.41
2022-12-13T02:02:59.661Z,99610.38
2022-12-13T02:08:03.375Z,99606.59
2022-12-13T02:13:05.581Z,99606.41
2022-12-13T02:18:32.524Z,99607.22
2022-12-13T02:24:11.046Z,99603.63
2022-12-13T02:29:31.600Z,99613.44
2022-12-13T02:34:39.512Z,99607.31
2022-12-13T02:39:48.228Z,99605.81
2022-12-13T02:45:01.436Z,99612.22
2022-12-13T02:50:07.023Z,99607.44
2022-12-13T02:55:14.346Z,99613.56
2022-12-13T03:00:42.385Z,99611.78
2022-12-13T03:06:24.331Z,99616.59
2022-12-13T03:11:49.980Z,99603.75
2022-12-13T03:16:54.614Z,99614.50
2022-12-13T03:21:56.475Z,99610.72
2022-12-13T03:26:58.386Z,99619.66
2022-12-13T03:32:00.036Z,99616.16
2022-12-13T03:37:01.699Z,99613.03
2022-12-13T03:42:03.532Z,99600.63
2022-12-13T03:47:05.196Z,99603.41
2022-12-13T03:52:06.855Z,99613.78
2022-12-13T03:57:08.441Z,99601.13
2022-12-13T04:02:10.368Z,99612.63
2022-12-13T04:07:22.127Z,99607.31
2022-12-13T04:12:46.866Z,99604.69
2022-12-13T04:17:51.061Z,99596.94
2022-12-13T04:22:52.953Z,99600.78
2022-12-13T04:27:54.563Z,99591.59
2022-12-13T04:32:56.843Z,99591.03
2022-12-13T04:37:58.673Z,99598.94
2022-12-13T04:43:00.275Z,99602.66
2022-12-13T04:48:01.911Z,99592.31
2022-12-13T04:53:03.812Z,99599.50
2022-12-13T04:58:05.426Z,99606.00
2022-12-13T05:03:08.084Z,99600.91
2022-12-13T05:08:09.765Z,99602.19
2022-12-13T05:13:11.406Z,99587.06
2022-12-13T05:18:13.066Z,99596.66
2022-12-13T05:23:14.623Z,99600.50
2022-12-13T05:28:28.969Z,99604.38
2022-12-13T05:33:30.756Z,99601.06
2022-12-13T05:38:32.596Z,99599.38
2022-12-13T05:43:42.096Z,99594.78
2022-12-13T05:48:45.142Z,99603.09
2022-12-13T05:53:51.569Z,99597.00
2022-12-13T05:58:55.014Z,99598.41
2022-12-13T06:03:56.828Z,99603.41
2022-12-13T06:08:59.418Z,99600.66
2022-12-13T06:14:01.427Z,99610.88
2022-12-13T06:19:04.672Z,99613.94
2022-12-13T06:24:08.682Z,99613.53
2022-12-13T06:29:11.128Z,99623.00
2022-12-13T06:34:14.203Z,99629.81
2022-12-13T06:39:17.759Z,99627.59
2022-12-13T06:44:19.398Z,99633.13
2022-12-13T06:49:21.087Z,99635.66
2022-12-13T06:54:23.991Z,99644.31
2022-12-13T06:59:25.780Z,99645.72
2022-12-13T07:04:29.742Z,99646.97
2022-12-13T07:09:33.112Z,99659.22
2022-12-13T07:14:40.991Z,99664.88
2022-12-13T07:19:43.473Z,99672.72
2022-12-13T07:24:45.562Z,99670.06
2022-12-13T07:29:47.148Z,99678.28
2022-12-13T07:34:48.925Z,99680.38
2022-12-13T07:39:50.534Z,99679.50
2022-12-13T07:44:52.577Z,99676.72
2022-12-13T07:49:54.161Z,99674.22
2022-12-13T07:54:55.763Z,99677.94
2022-12-13T07:59:58.154Z,99667.88
2022-12-13T08:04:59.905Z,99667.75
2022-12-13T08:10:22.097Z,99671.00
2022-12-13T08:15:25.647Z,99669.88
2022-12-13T08:20:27.499Z,99671.13
2022-12-13T08:25:29.760Z,99678.53
2022-12-13T08:30:32.554Z,99675.53
2022-12-13T08:35:34.936Z,99667.69
2022-12-13T08:40:37.528Z,99672.28
2022-12-13T08:45:39.168Z,99670.53
2022-12-13T08:50:40.734Z,99672.19
2022-12-13T08:55:42.476Z,99679.09
2022-12-13T09:00:46.288Z,99672.56
2022-12-13T09:05:47.946Z,99671.31
2022-12-13T09:11:00.232Z,99659.16
2022-12-13T09:16:14.014Z,99655.63
2022-12-13T09:21:22.323Z,99655.47
2022-12-13T09:26:37.648Z,99641.84
2022-12-13T09:31:41.107Z,99649.19
2022-12-13T09:36:42.983Z,99638.50
2022-12-13T09:41:49.478Z,99637.88
2022-12-13T09:46:52.965Z,99641.22
2022-12-13T09:52:10.791Z,99632.03
2022-12-13T09:57:34.497Z,99618.91
2022-12-13T10:02:46.750Z,99611.22
2022-12-13T10:07:49.718Z,99615.28
2022-12-13T10:13:31.341Z,99615.78
2022-12-13T10:18:35.536Z,99603.38
2022-12-13T10:23:59.757Z,99595.00
2022-12-13T10:29:05.699Z,99585.94
2022-12-13T10:34:21.347Z,99580.94
2022-12-13T10:39:43.209Z,99574.22
2022-12-13T10:44:45.926Z,99569.19
2022-12-13T10:49:48.852Z,99567.66
2022-12-13T10:54:51.456Z,99555.78
2022-12-13T10:59:53.173Z,99550.13
2022-12-13T11:04:54.865Z,99548.06
2022-12-13T11:10:27.824Z,99547.88
2022-12-13T11:15:31.104Z,99543.41
2022-12-13T11:20:37.781Z,99537.91
2022-12-13T11:25:41.663Z,99528.84
2022-12-13T11:31:17.393Z,99510.19
2022-12-13T11:36:57.756Z,99505.50
2022-12-13T11:42:04.380Z,99506.63
2022-12-13T11:47:12.834Z,99502.75
2022-12-13T11:52:42.763Z,99498.78
2022-12-13T11:57:47.019Z,99505.91
2022-12-13T12:02:58.632Z,99490.72
2022-12-13T12:13:51.355Z,99480.47
2022-12-13T12:18:53.628Z,99483.28
2022-12-13T12:24:44.415Z,99482.91
2022-12-13T12:30:04.028Z,99485.69
2022-12-13T12:35:17.381Z,99475.84
2022-12-13T12:41:07.520Z,99478.41
2022-12-13T12:47:17.686Z,99477.66
2022-12-13T12:52:26.394Z,99468.50
2022-12-13T12:57:48.997Z,99464.56
2022-12-13T13:03:22.641Z,99459.41
2022-12-13T13:08:32.314Z,99458.94
2022-12-13T13:13:46.507Z,99462.31
2022-12-13T13:18:52.422Z,99471.50
2022-12-13T13:24:10.026Z,99473.00
2022-12-13T13:29:27.750Z,99461.81
2022-12-13T13:34:35.649Z,99468.19
2022-12-13T13:39:54.462Z,99471.38
2022-12-13T13:45:20.662Z,99469.25
2022-12-13T13:50:54.429Z,99459.19
2022-12-13T13:56:28.606Z,99448.91
2022-12-13T14:01:30.786Z,99456.91
2022-12-13T14:07:09.443Z,99458.28
2022-12-13T14:12:45.427Z,99447.97
2022-12-13T14:18:00.771Z,99454.38
2022-12-13T14:23:44.190Z,99458.78
2022-12-13T14:28:51.951Z,99465.78
2022-12-13T14:33:56.057Z,99478.16
2022-12-13T14:39:24.602Z,99470.25
2022-12-13T14:44:30.118Z,99477.16
2022-12-13T14:49:35.998Z,99475.41
2022-12-13T14:55:05.855Z,99466.00
2022-12-13T15:00:30.827Z,99473.78
2022-12-13T15:05:35.268Z,99488.53
2022-12-13T15:10:36.800Z,99500.59
2022-12-13T15:15:39.106Z,99497.47
2022-12-13T15:20:41.808Z,99490.63
2022-12-13T15:26:27.697Z,99491.84
2022-12-13T15:31:34.552Z,99500.38
2022-12-13T15:36:38.428Z,99499.38
2022-12-13T15:41:46.786Z,99497.53
2022-12-13T15:46:51.252Z,99501.31
2022-12-13T15:51:57.925Z,99499.09
2022-12-13T15:57:15.949Z,99497.03
2022-12-13T16:02:22.247Z,99495.00
2022-12-13T16:07:38.072Z,99491.44
2022-12-13T16:12:48.146Z,99494.72
2022-12-13T16:17:53.228Z,99503.59
2022-12-13T16:22:54.854Z,99497.72
2022-12-13T16:28:01.628Z,99504.97
2022-12-13T16:33:18.743Z,99498.09
2022-12-13T16:38:26.432Z,99506.56
2022-12-13T16:43:34.329Z,99504.53
2022-12-13T16:48:36.565Z,99497.69
2022-12-13T16:53:38.214Z,99506.69
2022-12-13T16:58:43.416Z,99507.13
2022-12-13T17:03:48.061Z,99518.53
2022-12-13T17:08:49.658Z,99519.13
2022-12-13T17:13:51.572Z,99517.22
2022-12-13T17:18:55.797Z,99516.03
2022-12-13T17:23:59.436Z,99509.06
2022-12-13T17:29:01.320Z,99513.84
2022-12-13T17:34:04.036Z,99517.69
2022-12-13T17:39:05.626Z,99515.88
2022-12-13T17:44:07.481Z,99509.09
2022-12-13T17:49:09.166Z,99509.63
2022-12-13T17:54:11.816Z,99496.88
2022-12-13T17:59:15.300Z,99507.41
2022-12-13T18:04:17.404Z,99497.22
2022-12-13T18:09:19.076Z,99504.53
2022-12-13T18:14:20.926Z,99498.34
2022-12-13T18:19:24.017Z,99498.09
2022-12-13T18:24:25.977Z,99493.69
2022-12-13T18:29:27.929Z,99494.28
2022-12-13T18:34:29.639Z,99495.03
2022-12-13T18:39:31.637Z,99499.97
2022-12-13T18:44:33.470Z,99487.47
2022-12-13T18:49:35.249Z,99486.72
2022-12-13T18:54:36.905Z,99490.78
2022-12-13T18:59:38.500Z,99506.34
2022-12-13T19:04:41.010Z,99510.41
2022-12-13T19:09:56.700Z,99510.91
2022-12-13T19:14:58.901Z,99507.44
2022-12-13T19:20:02.197Z,99502.34
2022-12-13T19:25:04.131Z,99500.47
2022-12-13T19:30:06.405Z,99492.06
2022-12-13T19:35:08.477Z,99510.16
2022-12-13T19:40:10.480Z,99506.84
2022-12-13T19:45:12.261Z,99511.84
2022-12-13T19:50:13.863Z,99510.16
2022-12-13T19:55:15.514Z,99514.88
2022-12-13T20:00:17.610Z,99515.41
2022-12-13T20:05:19.871Z,99512.88
2022-12-13T20:10:21.460Z,99506.06
2022-12-13T20:15:23.104Z,99503.50
2022-12-13T20:20:31.443Z,99502.09
2022-12-13T20:25:37.938Z,99500.38
2022-12-13T20:30:39.532Z,99501.81
2022-12-13T20:36:07.441Z,99489.41
2022-12-13T20:41:06.041Z,99491.44
2022-12-13T20:46:13.369Z,99491.53
2022-12-13T20:51:20.363Z,99481.94
2022-12-13T20:56:27.032Z,99478.81
2022-12-13T21:01:31.392Z,99477.59
2022-12-13T21:06:36.077Z,99473.63
2022-12-13T21:11:40.499Z,99459.38
2022-12-13T21:16:47.349Z,99450.94
2022-12-13T21:21:49.584Z,99455.13
2022-12-13T21:26:52.467Z,99460.78
2022-12-13T21:31:54.828Z,99451.06
2022-12-13T21:36:57.277Z,99453.59
2022-12-13T21:41:58.945Z,99456.06
2022-12-13T21:47:15.863Z,99454.34
2022-12-13T21:52:17.752Z,99446.63
2022-12-13T21:57:38.120Z,99449.16
2022-12-13T22:02:39.862Z,99442.38
2022-12-13T22:07:41.554Z,99452.91
2022-12-13T22:12:43.127Z,99459.78
2022-12-13T22:17:44.712Z,99449.59
2022-12-13T22:22:48.614Z,99439.22
2022-12-13T22:27:50.275Z,99431.56
2022-12-13T22:32:53.915Z,99428.63
2022-12-13T22:38:00.122Z,99419.63
2022-12-13T22:43:03.059Z,99414.56
2022-12-13T22:48:05.213Z,99415.13
2022-12-13T22:53:06.902Z,99402.75
2022-12-13T22:58:08.486Z,99387.47
2022-12-13T23:03:10.122Z,99389.09
2022-12-13T23:08:11.815Z,99397.31
2022-12-13T23:13:14.211Z,99388.31
2022-12-13T23:18:15.860Z,99382.31
2022-12-13T23:23:17.462Z,99379.06
2022-12-13T23:28:19.122Z,99370.75
2022-12-13T23:33:20.925Z,99369.06
2022-12-13T23:38:22.504Z,99372.28
2022-12-13T23:43:24.133Z,99375.59
2022-12-13T23:48:27.115Z,99363.97
2022-12-13T23:53:29.433Z,99361.16
2022-12-13T23:58:31.062Z,99353.78
